FARRENBERG (FAR1) Information & Weather

WARNING: the data listed below is for informational purposes only and should be confirmed from official sources. Data presented here on this page may be out of date, incomplete or wrong.

Name: FARRENBERG
Identifier: FAR1

Coord: 48.3855N 9.0767E
Var: 1°E

Country: Germany
Municipality: UNKNOWN,
Time Zone: (GMT+01:00) Europe/Berlin

Station Elevation: 2605 ft
Pressure Altitude: 2600 ft
Density Altitude: 3705 ft
Freezing Level: 11191 ft

Civil Twilight
Morning: 02:45 UTC  (03:45 local)
Evening: 20:09 UTC  (21:09 local)

METAR EDDS 010050Z VRB01KT CAVOK 17/16 Q1018= [toggle past 4 hours]
(Station: EDDS; distance: 19.2 nm)

TAF LSZR 010225Z 0103/0112 VRB03KT 9999 SCT060 PROB30 TEMPO 0103/0106 4000 MIFG BKN005=
(Station: LSZR; distance: 57.5 nm)

UAV Operators

Looking to operate a drone in the area around FARRENBERG (FAR1)? Try out Skyward's Airspace Map and easy flight planning and logging tools designed specifically for drone pilots. See Skyward's website (www.skyward.io) for more information.

Upper Winds

Source   Valid 375 1000 2000 2500 3000 5000 6000 8000 10000 12000 14000 16000 18000 21000 24000 26000 30000 34000 39000 44000 52000 60000
GFS Not currently available

SIGMET/AIRMET

None within 25nm.

PIREP

None within 25nm.

NOTAM

Not tracked at this time. Please check with the local aviation authority for current list of NOTAM for FAR1.

Runway Data

Frequencies

Nearby Airports

Nearby Navaids